Portada
METAR-TAF:

METAR-TAF

Aeroports :

Ulan Bator, Mongòlia

latitud: 47-55N, longitud: 106-52E, altitud: 1306 m

Observació

L'informe es va fer fa 1 hora i 18 minuts, a les 18:00 UTC
Vent 2 kt amb direcció variable
Temperatura -31°C
Humitat 68%
Pressió 1028 hPa
Visibilitat 10 km o més
sense núvols per sota de 1500 mi sense presència de cumulonimbus.

METAR: ZMUB 091800Z VRB01MPS CAVOK M31/M35 Q1028 NOSIG RMK QFE662.8 69

Hora: 03:18 (19:18 UTC)

Pronòstic

L'informe es va fer fa 2 hores i 42 minuts, a les 16:36 UTC
Pronòstic vàlid del 09 a les 18 UTC al 10 a les 24 UTC
Vent 4 kt amb direcció variable
Visibilitat: 6000 m
Núvols disperses a una alçada de 10000 ft

TAF: ZMUB 091636Z 0918/1024 VRB02MPS 6000 SCT100 TNM34/0923Z TXM16/1007Z

Observacions i pronòstics meteorològics de més de 4000 aeroports (METAR i TAF).

Les estacions disponibles són els punts grocs i vermells al mapa.

Posi el ratolí al punt desitjat per veure el nom de l'estació.

Feu clic per veure les observacions i els pronòstics meteorològics.

Per canviar el mapa: feu clic els botons verds amb una creu de color negre per apropar; al botó verd amb un guió per allunyar la imatge; o en les fletxes verdes per a mapes adjacents.


METAR-TAF: